Navan Bearbrook Airport

CA-0088 · Ontario, Canada

2 octobre 2022

Temps Code Temps Temp. Vue Base cloud Vent METAR/SPECI
20:00
V
7 °C 15 mi - 350° 350° 7 kt METAR CYND 030000Z 35007KT 15SM FEW240 07/01 A3039 RMK CI1 SLP295
19:00
V
8 °C 15 mi - 010° 010° 4 kt METAR CYND 022300Z 01004KT 15SM FEW240 08/01 A3038 RMK CI2 SLP291
18:00
V
13 °C 15 mi - 040° 040° 4 kt METAR CYND 022200Z 04004KT 15SM FEW240 13/M01 A3036 RMK CI2 SLP286
17:00
V
14 °C 15 mi - 060° 060° 5 kt METAR CYND 022100Z 06005KT 030V090 15SM SCT240 14/M03 A3036 RMK CI4 SLP286
16:00
V
14 °C 15 mi - 030° 030° 4 kt METAR CYND 022000Z 03004KT 300V080 15SM FEW240 14/M03 A3037 RMK CI2 SLP287
15:00
V
14 °C 15 mi - 030° 030° 8 kt METAR CYND 021900Z 03008KT 010V100 15SM FEW240 14/M02 A3038 RMK CI1 CI TR SLP291
14:00
V
13 °C 15 mi - 040° 040° 6 kt METAR CYND 021800Z 04006KT 330V080 15SM FEW240 13/M01 A3039 RMK CI2 SLP296
13:00
V
12 °C 15 mi - 070° 070° 7 kt METAR CYND 021700Z 07007KT 15SM FEW240 12/M01 A3041 RMK CI1 CI TR SLP302
12:00
V
11 °C 15 mi - 080° 080° 10 - 17 kt METAR CYND 021600Z 08010G17KT 040V120 15SM FEW240 11/M02 A3043 RMK CI2 SLP308
11:00
V
10 °C 15 mi - 030° 030° 10 - 16 kt METAR CYND 021500Z 03010G16KT 010V100 15SM FEW240 10/M01 A3044 RMK CI1 CI TR SLP312
10:00
V
9 °C 15 mi - 050° 050° 8 - 17 kt METAR CYND 021400Z 05008G17KT 15SM FEW240 09/M01 A3044 RMK CI1 SLP310
09:00
V
7 °C 15 mi - 040° 040° 9 kt METAR CYND 021300Z 04009KT 15SM FEW250 07/M01 A3043 RMK CI1 CI TR SLP307
08:00
V
4 °C 15 mi - 060° 060° 3 kt METAR CYND 021200Z 06003KT 350V080 15SM FEW250 04/M01 A3041 RMK CI1 SLP301
07:00
V
2 °C 15 mi - 360° 360° 4 kt METAR CYND 021100Z 36004KT 15SM FEW250 02/M01 A3040 RMK CI2 SLP299

1 octobre 2022

Temps Code Temps Temp. Vue Base cloud Vent METAR/SPECI
21:00
V
12 °C 15 mi 5.000 ft 020° 020° 6 kt METAR CYND 020100Z 02006KT 15SM BKN050 12/06 A3026 RMK SC7 LAST STFD OBS/NXT 021100Z SLP251
20:00
V
12 °C 15 mi - 360° 360° 3 kt METAR CYND 020000Z 36003KT 330V080 15SM FEW046 SCT240 12/08 A3025 RMK SC2CI2 SLP247
19:00
V
13 °C 15 mi 24.000 ft 350° 350° 7 kt METAR CYND 012300Z 35007KT 15SM FEW016 FEW040 BKN240 13/08 A3023 RMK CU1SC1CI5 CU TR SLP240
18:00
V
15 °C 15 mi 24.000 ft 360° 360° 9 - 15 kt METAR CYND 012200Z 36009G15KT 15SM FEW040 BKN240 15/09 A3020 RMK SC2CI5 SLP232
17:00
V
16 °C 15 mi 25.000 ft 350° 350° 8 - 15 kt METAR CYND 012100Z 35008G15KT 15SM FEW030 BKN250 16/09 A3019 RMK SC2CI5 SLP225
16:00
V
17 °C 15 mi 24.000 ft 350° 350° 7 kt METAR CYND 012000Z 35007KT 320V040 15SM FEW030 BKN240 17/10 A3017 RMK CU1CS7 CU TR SLP220 DENSITY ALT 300FT
15:00
V
18 °C 15 mi 25.000 ft 340° 340° 10 kt METAR CYND 011900Z 34010KT 15SM FEW150 BKN250 18/09 A3017 RMK AC1CI6 SLP220 DENSITY ALT 300FT
14:00
V
18 °C 15 mi 24.000 ft 350° 350° 8 kt METAR CYND 011800Z 35008KT 15SM FEW040 FEW120 OVC240 18/09 A3017 RMK CU1AC1CS7 CU TR SLP220 DENSITY ALT 400FT
13:00
V
18 °C 15 mi 25.000 ft 310° 310° 7 kt METAR CYND 011700Z 31007KT 300V030 15SM BKN250 18/09 A3018 RMK CI7 SLP224 DENSITY ALT 400FT
12:00
V
17 °C 15 mi 24.000 ft 150° 150° 4 kt METAR CYND 011600Z 15004KT 090V200 15SM FEW180 OVC240 17/10 A3019 RMK AC1CS8 AC TR SLP227 DENSITY ALT 300FT
11:00
V
16 °C 15 mi 25.000 ft Var 000° 0 kt METAR CYND 011500Z 00000KT 15SM BKN250 16/09 A3019 RMK CI7 SLP225
10:00
V
12 °C 15 mi 25.000 ft Var Var 2 kt METAR CYND 011400Z VRB02KT 15SM BKN250 12/09 A3019 RMK CI7 SLP228
09:00
V
8 °C 15 mi 25.000 ft Var 000° 0 kt METAR CYND 011300Z 00000KT 15SM BKN250 08/07 A3020 RMK CI7 SLP230
08:00
V
6 °C 15 mi 25.000 ft Var 000° 0 kt METAR CYND 011200Z 00000KT 15SM BKN250 06/06 A3019 RMK CI7 SLP229
07:00
V
5 °C 15 mi 25.000 ft Var 000° 0 kt METAR CYND 011100Z 00000KT 15SM BKN250 05/05 A3019 RMK CI7 SLP229

30 septembre 2022

Temps Code Temps Temp. Vue Base cloud Vent METAR/SPECI
21:00
V
8 °C 15 mi 25.000 ft Var 000° 0 kt METAR CYND 010100Z 00000KT 15SM BKN250 08/05 A3020 RMK CI6 LAST STFD OBS/NXT 011100Z SLP232
20:00
V
9 °C 15 mi 25.000 ft 330° 330° 3 kt METAR CYND 010000Z 33003KT 15SM FEW180 BKN250 09/06 A3021 RMK AC1CI5 AC TR SLP235
19:00
V
12 °C 15 mi - 300° 300° 2 kt METAR CYND 302300Z 30002KT 15SM SCT250 12/05 A3021 RMK CI4 SLP235
18:00
V
16 °C 15 mi - 290° 290° 6 kt METAR CYND 302200Z 29006KT 15SM SCT250 16/02 A3021 RMK CI4 SLP235
17:00
V
18 °C 15 mi - 270° 270° 7 kt METAR CYND 302100Z 27007KT 200V270 15SM FEW240 18/03 A3023 RMK CI2 SLP240 DENSITY ALT 300FT
16:00
V
18 °C 15 mi - 270° 270° 4 kt METAR CYND 302000Z 27004KT 15SM FEW240 18/02 A3025 RMK CI2 SLP247 DENSITY ALT 300FT
15:00
V
18 °C 15 mi - 190° 190° 3 kt METAR CYND 301900Z 19003KT 170V320 15SM FEW240 18/04 A3026 RMK CI1 SLP251
14:00
V
17 °C 15 mi - 230° 230° 8 kt METAR CYND 301800Z 23008KT 190V280 15SM FEW240 17/04 A3030 RMK CI1 SLP263
13:00
V
16 °C 15 mi - 260° 260° 5 kt METAR CYND 301700Z 26005KT 210V290 15SM FEW240 16/04 A3033 RMK CI1 SLP274
12:00
V
15 °C 15 mi - 180° 180° 4 kt METAR CYND 301600Z 18004KT 120V220 15SM FEW250 15/06 A3035 RMK CI1 SLP280
11:00
V
13 °C 15 mi - Var Var 2 kt METAR CYND 301500Z VRB02KT 15SM FEW240 13/06 A3037 RMK CI1 SLP289
Données plus anciennes

Nous et des tiers suivons ton comportement sur Internet sur notre site Web à l'aide de cookies. Si tu continues, nous supposons que tu acceptes notre politique en matière de cookies. Apprendre plus